Aviation Digital Data Service (ADDS)

Output produced by METARs form (0819 UTC 28 July 2015)
found at http://www.aviationweather.gov/adds/metars/
 
KAOO 280753Z AUTO 00000KT 1/4SM FG VV005 19/18 A3006 RMK AO2 SLP168 T01890183
KAOO 280742Z AUTO 00000KT 1/4SM FG VV009 19/18 A3006 RMK AO2 T01940183
KAOO 280735Z AUTO 00000KT 3/4SM BR VV013 19/18 A3006 RMK AO2 T01940183
KAOO 280703Z AUTO 00000KT 1 3/4SM BR CLR 19/18 A3007 RMK AO2 T01890178
KAOO 280653Z AUTO 00000KT 2SM BR CLR 19/18 A3007 RMK AO2 SLP172 T01890178
KAOO 280626Z AUTO 00000KT 2 1/2SM BR FEW075 19/18 A3007 RMK AO2 T01940183
KAOO 280553Z AUTO 00000KT 3SM BR BKN075 20/19 A3008 RMK AO2 SLP173 T02000189 10250 20200 50000
KAOO 280453Z AUTO 00000KT 5SM BR OVC085 21/20 A3009 RMK AO2 SLP176 T02110200 402940172
KAOO 280353Z AUTO 00000KT 5SM BR CLR 21/19 A3008 RMK AO2 SLP176 T02060189
KAOO 280253Z AUTO 00000KT 6SM BR SCT080 22/20 A3007 RMK AO2 SLP173 T02170200 51015
KAOO 280153Z AUTO 00000KT 6SM BR CLR 22/20 A3006 RMK AO2 SLP168 T02220200
KAOO 280053Z AUTO 10004KT 8SM CLR 23/20 A3004 RMK AO2 SLP164 T02280200
KAOO 272353Z AUTO 12003KT 9SM CLR 25/21 A3003 RMK AO2 SLP158 T02500206 10294 20250 51005
KAOO 272253Z AUTO 09005KT 9SM CLR 27/21 A3002 RMK AO2 SLP155 T02670206
KAOO 272153Z AUTO 09006KT 9SM FEW030 FEW038 27/20 A3002 RMK AO2 SLP156 T02720200
KAOO 272053Z AUTO 07007KT 9SM CLR 29/19 A3001 RMK AO2 SLP152 T02890194 56010
KAOO 271953Z AUTO 03004KT 8SM SCT037 28/19 A3002 RMK AO2 SLP155 T02830194
KAOO 271853Z AUTO 00000KT 8SM BKN039 29/19 A3003 RMK AO2 SLP157 T02890189
KAOO 271753Z AUTO 01004KT 6SM HZ SCT029 28/20 A3004 RMK AO2 SLP162 T02780200 10283 20211 58007
KAOO 271653Z AUTO VRB03KT 6SM HZ FEW024 SCT036 27/20 A3006 RMK AO2 SLP167 T02720200
KAOO 271638Z AUTO VRB03KT 6SM HZ BKN023 BKN036 27/21 A3006 RMK AO2 T02720206
KAOO 271630Z AUTO VRB03KT 6SM HZ SCT023 BKN032 26/20 A3006 RMK AO2 T02610200
KAOO 271620Z AUTO VRB03KT 6SM HZ SCT022 BKN029 26/19 A3007 RMK AO2 T02610194
KAOO 271611Z AUTO VRB03KT 7SM FEW020 SCT029 27/20 A3007 RMK AO2 T02670200
KAOO 271553Z AUTO 00000KT 8SM FEW020 BKN028 26/20 A3007 RMK AO2 SLP170 T02610200
KAOO 271453Z AUTO VRB05KT 8SM BKN047 25/19 A3006 RMK AO2 SLP169 T02500194 51006
KAOO 271353Z AUTO 01004KT 7SM BKN038 BKN047 24/20 A3006 RMK AO2 SLP167 T02390200
KAOO 271253Z AUTO VRB04KT 5SM HZ CLR 22/19 A3005 RMK AO2 SLP166 T02170189
KAOO 271213Z AUTO 00000KT 3SM BR CLR 20/18 A3005 RMK AO2 T02000183
KAOO 271153Z AUTO 00000KT 2SM BR CLR 19/18 A3004 RMK AO2 SLP164 70007 T01940183 10194 20172 53011
KAOO 271053Z AUTO 00000KT 1SM BR CLR 18/17 A3003 RMK AO2 SLP158 T01830172
KAOO 271032Z AUTO 00000KT 1 3/4SM BR CLR 18/17 A3002 RMK AO2 T01780167
KAOO 270953Z AUTO 00000KT 2SM BR SCT075 18/17 A3001 RMK AO2 SLP154 T01780172
KAOO 270943Z AUTO 00000KT 2 1/2SM BR BKN080 18/17 A3001 RMK AO2 T01830172
KAOO 270853Z AUTO 00000KT 4SM BR BKN080 19/18 A3001 RMK AO2 SLP151 T01890178 55003
KAOO 270753Z AUTO 00000KT 4SM BR BKN090 OVC110 19/18 A3000 RMK AO2 SLP149 T01940183
KAOO 270653Z AUTO 00000KT 4SM BR FEW060 BKN110 19/18 A3001 RMK AO2 SLP150 T01890178
KAOO 270553Z AUTO 26003KT 4SM BR OVC044 19/18 A3002 RMK AO2 SLP154 60000 T01940183 10233 20194 53001
KAOO 270453Z AUTO 00000KT 5SM BR CLR 19/18 A3001 RMK AO2 SLP152 T01940183 402940156
KAOO 270353Z AUTO 00000KT 5SM BR SCT050 20/19 A3002 RMK AO2 LTG DSNT SE SLP152 T02000189
KAOO 270253Z AUTO 00000KT 10SM FEW070 FEW110 21/19 A3001 RMK AO2 RAB19E39 TSB06E31 SLP152 P0000 60000 T02110189 51004
KAOO 270237Z AUTO 03003KT 10SM -RA FEW070 SCT085 BKN110 22/19 A3002 RMK AO2 RAB19 TSB06E31 P0000 T02170189
KAOO 270212Z AUTO 32006KT 8SM TS FEW070 BKN100 22/20 A3002 RMK AO2 LTG DSNT E AND NW TSB06 T02220200
KAOO 270153Z AUTO 00000KT 9SM VCTS FEW070 SCT100 22/20 A3001 RMK AO2 LTG DSNT E AND NW SLP150 T02220200
KAOO 270053Z AUTO 00000KT 10SM BKN046 22/19 A3000 RMK AO2 LTG DSNT W SLP148 T02220194
KAOO 262353Z AUTO 17003KT 10SM FEW050 23/20 A3000 RMK AO2 SLP149 60007 T02330200 10294 20222 53006
KAOO 262253Z AUTO 26003KT 10SM SCT055 26/19 A2999 RMK AO2 LTG DSNT N AND NE SLP145 T02560189
KAOO 262153Z AUTO 22008KT 10SM BKN055 OVC090 26/19 A2999 RMK AO2 SLP147 T02560194
KAOO 262053Z AUTO 19003KT 10SM FEW065 27/20 A2998 RMK AO2 RAE1954 SLP143 P0000 60007 T02720200 56010